Time;durP1;ratioP1;P1;durP2;ratioP2;P2;SDS_P1;SDS_P2;PMS_P1;PMS_P2;Temp;Humidity;BMP_temperature;BMP_pressure;BME280_temperature;BME280_humidity;BME280_pressure;Samples;Min_cycle;Max_cycle;Signal;HPM_P1;HPM_P2
2021/10/06 00:00:08;;;;;;;;;;;16.50;99.90;;;;;;5079067;28;802;-49
2021/10/06 00:02:33;;;;;;;;;;;16.50;99.90;;;;;;5078893;28;733;-50
2021/10/06 00:04:59;;;;;;;;;;;16.50;99.90;;;;;;5078607;28;922;-50
2021/10/06 00:07:24;;;;;;;;;;;16.50;99.90;;;;;;5078505;28;835;-49
2021/10/06 00:09:50;;;;;;;;;;;16.50;99.90;;;;;;5078218;28;1190;-48
2021/10/06 00:12:15;;;;;;;;;;;16.50;99.90;;;;;;5078705;28;1910;-49
2021/10/06 00:14:41;;;;;;;;;;;16.50;99.90;;;;;;5078520;28;821;-49
2021/10/06 00:17:07;;;;;;;;;;;16.50;99.90;;;;;;5078709;28;754;-50
2021/10/06 00:19:32;;;;;;;;;;;16.50;99.90;;;;;;5078370;28;889;-49
2021/10/06 00:21:57;;;;;;;;;;;16.50;99.90;;;;;;5078454;28;810;-50
2021/10/06 00:24:23;;;;;;;;;;;16.50;99.90;;;;;;5077896;28;808;-49
2021/10/06 00:26:49;;;;;;;;;;;16.50;99.90;;;;;;5078323;28;883;-49
2021/10/06 00:29:14;;;;;;;;;;;16.50;99.90;;;;;;5078498;28;835;-49
2021/10/06 00:31:40;;;;;;;;;;;16.50;99.90;;;;;;5078504;28;1894;-45
2021/10/06 00:34:06;;;;;;;;;;;16.50;99.90;;;;;;5063576;28;1033;-44
2021/10/06 00:36:31;;;;;;;;;;;16.40;99.90;;;;;;5058749;28;940;-44
2021/10/06 00:38:57;;;;;;;;;;;16.40;99.90;;;;;;5058524;28;797;-44
2021/10/06 00:41:22;;;;;;;;;;;16.40;99.90;;;;;;5058747;28;849;-44
2021/10/06 00:43:48;;;;;;;;;;;16.40;99.90;;;;;;5058715;28;911;-44
2021/10/06 00:46:13;;;;;;;;;;;16.40;99.90;;;;;;5062030;28;766;-44
2021/10/06 00:48:39;;;;;;;;;;;16.40;99.90;;;;;;5077792;28;714;-44
2021/10/06 00:51:04;;;;;;;;;;;16.40;99.90;;;;;;5077900;28;1902;-44
2021/10/06 00:53:30;;;;;;;;;;;16.40;99.90;;;;;;5077641;28;907;-44
2021/10/06 00:55:55;;;;;;;;;;;16.40;99.90;;;;;;5077691;28;797;-44
2021/10/06 00:58:21;;;;;;;;;;;16.40;99.90;;;;;;5077335;28;955;-44
2021/10/06 01:00:46;;;;;;;;;;;16.40;99.90;;;;;;5077113;28;866;-44
2021/10/06 01:03:14;;;;;;;;;;;16.40;99.90;;;;;;5077965;28;849;-47
2021/10/06 01:05:40;;;;;;;;;;;16.40;99.90;;;;;;5045051;28;2092;-45
2021/10/06 01:08:12;;;;;;;;;;;16.40;99.90;;;;;;5048969;28;1436;-49
2021/10/06 01:10:40;;;;;;;;;;;16.40;99.90;;;;;;5052301;28;1898;-49
2021/10/06 01:13:05;;;;;;;;;;;16.40;99.90;;;;;;5057763;28;807;-45
2021/10/06 01:15:31;;;;;;;;;;;16.40;99.90;;;;;;5057385;28;931;-45
2021/10/06 01:17:56;;;;;;;;;;;16.40;99.90;;;;;;5057082;28;825;-44
2021/10/06 01:20:22;;;;;;;;;;;16.30;99.90;;;;;;5056290;28;729;-44
2021/10/06 01:22:48;;;;;;;;;;;16.30;99.90;;;;;;5056807;28;810;-49
2021/10/06 01:25:15;;;;;;;;;;;16.30;99.90;;;;;;5056265;28;805;-49
2021/10/06 01:27:40;;;;;;;;;;;16.30;99.90;;;;;;5056239;28;758;-50
2021/10/06 01:30:07;;;;;;;;;;;16.30;99.90;;;;;;5056306;28;805;-50
2021/10/06 01:32:36;;;;;;;;;;;16.30;99.90;;;;;;5052908;28;1967;-49
2021/10/06 01:35:02;;;;;;;;;;;16.30;99.90;;;;;;5044726;28;1249;-49
2021/10/06 01:37:30;;;;;;;;;;;16.30;99.90;;;;;;5040224;28;1350;-49
2021/10/06 01:39:55;;;;;;;;;;;16.30;99.90;;;;;;5041685;28;1846;-49
2021/10/06 01:42:21;;;;;;;;;;;16.30;99.90;;;;;;5041549;28;835;-49
2021/10/06 01:44:47;;;;;;;;;;;16.30;99.90;;;;;;5038851;28;1291;-49
2021/10/06 01:47:20;;;;;;;;;;;16.30;99.90;;;;;;5045711;28;940;-50
2021/10/06 01:49:47;;;;;;;;;;;16.30;99.90;;;;;;5040364;28;1567;-50
2021/10/06 01:52:19;;;;;;;;;;;16.30;99.90;;;;;;5052850;28;1906;-49
2021/10/06 01:54:44;;;;;;;;;;;16.30;99.90;;;;;;5045473;28;1449;-49
2021/10/06 01:57:10;;;;;;;;;;;16.20;99.90;;;;;;5037044;28;823;-49
2021/10/06 01:59:36;;;;;;;;;;;16.30;99.90;;;;;;5037302;28;825;-51
2021/10/06 02:02:01;;;;;;;;;;;16.20;99.90;;;;;;5037375;28;811;-49
2021/10/06 02:04:27;;;;;;;;;;;16.20;99.90;;;;;;5037303;28;769;-49
2021/10/06 02:06:52;;;;;;;;;;;16.20;99.90;;;;;;5037281;28;844;-50
2021/10/06 02:09:18;;;;;;;;;;;16.20;99.90;;;;;;5037078;28;782;-49
2021/10/06 02:11:43;;;;;;;;;;;16.20;99.90;;;;;;5052387;28;1977;-44
2021/10/06 02:14:09;;;;;;;;;;;16.20;99.90;;;;;;5039523;28;805;-45
2021/10/06 02:16:34;;;;;;;;;;;16.20;99.90;;;;;;5056671;28;825;-45
2021/10/06 02:19:00;;;;;;;;;;;16.20;99.90;;;;;;5057277;28;790;-44
2021/10/06 02:21:25;;;;;;;;;;;16.20;99.90;;;;;;5056937;28;903;-44
2021/10/06 02:23:51;;;;;;;;;;;16.20;99.90;;;;;;5056717;28;840;-44
2021/10/06 02:26:16;;;;;;;;;;;16.20;99.90;;;;;;5056799;28;773;-44
2021/10/06 02:28:42;;;;;;;;;;;16.20;99.90;;;;;;5056798;28;844;-44
2021/10/06 02:31:07;;;;;;;;;;;16.20;99.90;;;;;;5056561;28;1925;-44
2021/10/06 02:33:33;;;;;;;;;;;16.20;99.90;;;;;;5056729;28;776;-44
2021/10/06 02:35:58;;;;;;;;;;;16.20;99.90;;;;;;5056374;28;742;-44
2021/10/06 02:38:24;;;;;;;;;;;16.20;99.90;;;;;;5038932;28;765;-44
2021/10/06 02:40:49;;;;;;;;;;;16.20;99.90;;;;;;5056567;28;808;-44
2021/10/06 02:43:15;;;;;;;;;;;16.20;99.90;;;;;;5056485;28;789;-44
2021/10/06 02:45:44;;;;;;;;;;;16.20;99.90;;;;;;5056744;28;747;-45
2021/10/06 02:48:10;;;;;;;;;;;16.20;99.90;;;;;;5075728;28;734;-51
2021/10/06 02:50:36;;;;;;;;;;;16.20;99.90;;;;;;5076117;28;931;-50
2021/10/06 02:53:01;;;;;;;;;;;16.10;99.90;;;;;;5057982;28;754;-48
2021/10/06 02:55:28;;;;;;;;;;;16.10;99.90;;;;;;5075276;28;797;-48
2021/10/06 02:57:54;;;;;;;;;;;16.10;99.90;;;;;;5075793;28;778;-48
2021/10/06 03:00:20;;;;;;;;;;;16.10;99.90;;;;;;5075498;28;761;-48
2021/10/06 03:02:45;;;;;;;;;;;16.10;99.90;;;;;;5075430;28;867;-50
2021/10/06 03:05:11;;;;;;;;;;;16.10;99.90;;;;;;5075417;28;699;-51
2021/10/06 03:07:37;;;;;;;;;;;16.10;99.90;;;;;;5075609;28;856;-50
2021/10/06 03:10:04;;;;;;;;;;;16.10;99.90;;;;;;5075362;28;1168;-49
2021/10/06 03:12:29;;;;;;;;;;;16.10;99.90;;;;;;5075074;28;1951;-50
2021/10/06 03:14:55;;;;;;;;;;;16.10;99.90;;;;;;5074861;28;943;-50
2021/10/06 03:17:20;;;;;;;;;;;16.10;99.90;;;;;;5075391;28;860;-51
2021/10/06 03:19:46;;;;;;;;;;;16.10;99.90;;;;;;5075230;28;896;-50
2021/10/06 03:22:11;;;;;;;;;;;16.10;99.90;;;;;;5075132;28;895;-49
2021/10/06 03:24:37;;;;;;;;;;;16.10;99.90;;;;;;5074930;28;793;-50
2021/10/06 03:27:02;;;;;;;;;;;16.10;99.90;;;;;;5075159;28;900;-51
2021/10/06 03:29:28;;;;;;;;;;;16.10;99.90;;;;;;5057624;28;781;-45
2021/10/06 03:31:54;;;;;;;;;;;16.10;99.90;;;;;;5075256;28;1965;-45
2021/10/06 03:34:19;;;;;;;;;;;16.10;99.90;;;;;;5072984;28;1056;-45
2021/10/06 03:36:45;;;;;;;;;;;16.10;99.90;;;;;;5057545;28;1250;-45
2021/10/06 03:39:10;;;;;;;;;;;16.10;99.90;;;;;;5055700;28;747;-45
2021/10/06 03:41:36;;;;;;;;;;;16.10;99.90;;;;;;5055782;28;920;-49
2021/10/06 03:44:01;;;;;;;;;;;16.10;99.90;;;;;;5055866;28;813;-50
2021/10/06 03:46:27;;;;;;;;;;;16.10;99.90;;;;;;5045127;28;1276;-50
2021/10/06 03:48:52;;;;;;;;;;;16.10;99.90;;;;;;5075086;28;852;-50
2021/10/06 03:51:19;;;;;;;;;;;16.10;99.90;;;;;;5074640;28;1906;-50
2021/10/06 03:53:44;;;;;;;;;;;16.00;99.90;;;;;;5074666;28;875;-50
2021/10/06 03:56:10;;;;;;;;;;;16.00;99.90;;;;;;5074972;28;761;-50
2021/10/06 03:58:35;;;;;;;;;;;16.10;99.90;;;;;;5075062;28;777;-50
2021/10/06 04:01:01;;;;;;;;;;;16.00;99.90;;;;;;5074980;28;830;-50
2021/10/06 04:03:26;;;;;;;;;;;16.00;99.90;;;;;;5074906;28;828;-50
2021/10/06 04:05:52;;;;;;;;;;;16.00;99.90;;;;;;5074717;28;1060;-50
2021/10/06 04:08:17;;;;;;;;;;;16.00;99.90;;;;;;5074857;28;757;-51
2021/10/06 04:10:43;;;;;;;;;;;16.00;99.90;;;;;;5074465;28;1910;-50
2021/10/06 04:13:09;;;;;;;;;;;16.00;99.90;;;;;;5074668;28;745;-51
2021/10/06 04:15:34;;;;;;;;;;;16.00;99.90;;;;;;5074683;28;942;-50
2021/10/06 04:18:02;;;;;;;;;;;16.00;99.90;;;;;;5074880;28;825;-50
2021/10/06 04:20:28;;;;;;;;;;;16.00;99.90;;;;;;5074653;28;734;-50
2021/10/06 04:22:53;;;;;;;;;;;16.00;99.90;;;;;;5074694;28;1519;-51
2021/10/06 04:25:19;;;;;;;;;;;16.00;99.90;;;;;;5074388;28;781;-51
2021/10/06 04:27:44;;;;;;;;;;;16.00;99.90;;;;;;5074515;28;789;-50
2021/10/06 04:30:10;;;;;;;;;;;15.90;99.90;;;;;;5074637;28;757;-51
2021/10/06 04:32:36;;;;;;;;;;;15.90;99.90;;;;;;5074386;28;1897;-50
2021/10/06 04:35:02;;;;;;;;;;;16.00;99.90;;;;;;5075750;28;793;-50
2021/10/06 04:37:27;;;;;;;;;;;15.90;99.90;;;;;;5078174;28;820;-50
2021/10/06 04:39:53;;;;;;;;;;;15.90;99.90;;;;;;5060354;28;789;-50
2021/10/06 04:42:18;;;;;;;;;;;15.90;99.90;;;;;;5077948;28;848;-51
2021/10/06 04:44:44;;;;;;;;;;;15.90;99.90;;;;;;5077768;28;989;-50
2021/10/06 04:47:10;;;;;;;;;;;15.90;99.90;;;;;;5077955;28;812;-50
2021/10/06 04:49:35;;;;;;;;;;;15.90;99.90;;;;;;5077961;28;955;-50
2021/10/06 04:52:01;;;;;;;;;;;15.90;99.90;;;;;;5058624;28;1898;-51
2021/10/06 04:54:26;;;;;;;;;;;15.90;99.90;;;;;;5058635;28;805;-50
2021/10/06 04:56:52;;;;;;;;;;;15.90;99.90;;;;;;5058816;28;805;-50
2021/10/06 04:59:17;;;;;;;;;;;15.90;99.90;;;;;;5058530;28;891;-50
2021/10/06 05:01:43;;;;;;;;;;;15.90;99.90;;;;;;5058107;28;789;-50
2021/10/06 05:04:09;;;;;;;;;;;15.90;99.90;;;;;;5058649;28;814;-50
2021/10/06 05:06:34;;;;;;;;;;;15.90;99.90;;;;;;5058330;28;916;-50
2021/10/06 05:09:00;;;;;;;;;;;15.90;99.90;;;;;;5059047;28;926;-50
2021/10/06 05:11:25;;;;;;;;;;;15.90;99.90;;;;;;5058124;28;1969;-50
2021/10/06 05:13:51;;;;;;;;;;;15.90;99.90;;;;;;5058051;28;873;-50
2021/10/06 05:16:16;;;;;;;;;;;15.90;99.90;;;;;;5061933;28;851;-50
2021/10/06 05:18:42;;;;;;;;;;;15.90;99.90;;;;;;5077482;28;879;-50
2021/10/06 05:21:08;;;;;;;;;;;15.90;99.90;;;;;;5059230;28;714;-51
2021/10/06 05:23:33;;;;;;;;;;;15.90;99.90;;;;;;5077199;28;844;-50
2021/10/06 05:25:59;;;;;;;;;;;15.90;99.90;;;;;;5077175;28;797;-50
2021/10/06 05:28:24;;;;;;;;;;;15.90;99.90;;;;;;5077125;28;829;-50
2021/10/06 05:30:50;;;;;;;;;;;15.90;99.90;;;;;;5059525;28;1902;-50
2021/10/06 05:33:15;;;;;;;;;;;15.90;99.90;;;;;;5077107;28;722;-45
2021/10/06 05:35:41;;;;;;;;;;;15.90;99.90;;;;;;5076898;28;757;-45
2021/10/06 05:38:08;;;;;;;;;;;15.90;99.90;;;;;;5076696;28;794;-45
2021/10/06 05:40:33;;;;;;;;;;;15.90;99.90;;;;;;5057430;28;1449;-45
2021/10/06 05:42:59;;;;;;;;;;;15.90;99.90;;;;;;5057691;28;1214;-45
2021/10/06 05:45:24;;;;;;;;;;;16.00;99.90;;;;;;5061775;28;1453;-45
2021/10/06 05:47:50;;;;;;;;;;;16.10;99.90;;;;;;5074011;28;734;-45
2021/10/06 05:50:15;;;;;;;;;;;16.20;99.90;;;;;;5076669;28;927;-45
2021/10/06 05:52:41;;;;;;;;;;;16.30;99.90;;;;;;5076647;28;1953;-45
2021/10/06 05:55:07;;;;;;;;;;;16.30;99.90;;;;;;5076460;28;881;-45
2021/10/06 05:57:32;;;;;;;;;;;16.40;99.90;;;;;;5076580;28;757;-45
2021/10/06 05:59:58;;;;;;;;;;;16.50;99.90;;;;;;5076548;28;799;-45
2021/10/06 06:02:23;;;;;;;;;;;16.50;99.90;;;;;;5074074;28;1087;-46
2021/10/06 06:04:49;;;;;;;;;;;16.60;99.90;;;;;;5076365;28;1504;-45
2021/10/06 06:07:14;;;;;;;;;;;16.60;99.90;;;;;;5059654;28;1218;-45
2021/10/06 06:09:40;;;;;;;;;;;16.60;99.90;;;;;;5056919;28;825;-45
2021/10/06 06:12:09;;;;;;;;;;;16.70;99.90;;;;;;5062212;28;1918;-45
2021/10/06 06:14:35;;;;;;;;;;;16.70;99.90;;;;;;5056596;28;850;-45
2021/10/06 06:17:01;;;;;;;;;;;16.80;99.90;;;;;;5045646;28;1340;-45
2021/10/06 06:19:27;;;;;;;;;;;16.90;99.90;;;;;;5066161;28;1226;-45
2021/10/06 06:21:52;;;;;;;;;;;16.90;99.90;;;;;;5064323;28;1202;-45
2021/10/06 06:24:18;;;;;;;;;;;16.90;99.90;;;;;;5064727;28;1416;-45
2021/10/06 06:26:44;;;;;;;;;;;17.00;99.90;;;;;;5064859;28;1234;-50
2021/10/06 06:29:09;;;;;;;;;;;17.00;99.90;;;;;;5066002;28;1360;-45
2021/10/06 06:31:35;;;;;;;;;;;17.00;99.90;;;;;;5064590;28;1906;-45
2021/10/06 06:34:00;;;;;;;;;;;17.00;99.90;;;;;;5066334;28;1364;-50
2021/10/06 06:36:26;;;;;;;;;;;17.00;99.90;;;;;;5065594;28;1158;-50
2021/10/06 06:38:52;;;;;;;;;;;17.00;99.90;;;;;;5065576;28;1302;-51
2021/10/06 06:41:18;;;;;;;;;;;17.10;99.90;;;;;;5067741;28;1173;-50
2021/10/06 06:43:43;;;;;;;;;;;17.10;99.90;;;;;;5065895;28;1293;-50
2021/10/06 06:46:09;;;;;;;;;;;17.10;99.90;;;;;;5066577;28;1311;-50
2021/10/06 06:48:34;;;;;;;;;;;17.10;99.90;;;;;;5063899;28;1115;-51
2021/10/06 06:51:00;;;;;;;;;;;17.20;99.90;;;;;;5059229;28;1968;-50
2021/10/06 06:53:26;;;;;;;;;;;17.20;99.90;;;;;;5056670;28;831;-50
2021/10/06 06:55:53;;;;;;;;;;;17.20;99.90;;;;;;5061905;28;1697;-51
2021/10/06 06:58:18;;;;;;;;;;;17.30;99.90;;;;;;5056462;28;1561;-50
2021/10/06 07:00:44;;;;;;;;;;;17.20;99.90;;;;;;5060019;28;1609;-50
2021/10/06 07:03:09;;;;;;;;;;;17.10;99.90;;;;;;5056058;28;817;-51
2021/10/06 07:05:35;;;;;;;;;;;17.10;99.90;;;;;;5058793;28;1759;-51
2021/10/06 07:08:02;;;;;;;;;;;17.10;99.90;;;;;;5055697;28;952;-50
2021/10/06 07:10:28;;;;;;;;;;;17.20;99.90;;;;;;5055904;28;1034;-50
2021/10/06 07:12:53;;;;;;;;;;;17.20;99.90;;;;;;5055748;28;1965;-51
2021/10/06 07:15:19;;;;;;;;;;;17.20;99.90;;;;;;5056069;28;872;-50
2021/10/06 07:17:44;;;;;;;;;;;17.20;99.90;;;;;;5071423;28;896;-51
2021/10/06 07:20:10;;;;;;;;;;;17.20;99.90;;;;;;5075245;28;761;-51
2021/10/06 07:22:36;;;;;;;;;;;17.20;99.90;;;;;;5075163;28;820;-51
2021/10/06 07:25:02;;;;;;;;;;;17.30;99.90;;;;;;5072688;28;1409;-45
2021/10/06 07:27:27;;;;;;;;;;;17.40;99.90;;;;;;5044404;28;1160;-45
2021/10/06 07:29:53;;;;;;;;;;;17.40;99.90;;;;;;5062897;28;1573;-45
2021/10/06 07:32:18;;;;;;;;;;;17.40;99.90;;;;;;5056235;28;1961;-45
2021/10/06 07:34:44;;;;;;;;;;;17.30;99.90;;;;;;5056187;28;955;-45
2021/10/06 07:37:09;;;;;;;;;;;17.30;99.90;;;;;;5055652;28;730;-45
2021/10/06 07:39:35;;;;;;;;;;;17.20;99.90;;;;;;5055923;28;765;-45
2021/10/06 07:42:01;;;;;;;;;;;17.20;99.90;;;;;;5056296;28;951;-45
2021/10/06 07:44:26;;;;;;;;;;;17.20;99.90;;;;;;5055717;28;781;-46
2021/10/06 07:46:52;;;;;;;;;;;17.20;99.90;;;;;;5064120;28;1112;-46
2021/10/06 07:49:18;;;;;;;;;;;17.30;99.90;;;;;;5061466;28;1164;-45
2021/10/06 07:51:43;;;;;;;;;;;17.30;99.90;;;;;;5055609;28;1898;-45
2021/10/06 07:54:09;;;;;;;;;;;17.20;99.90;;;;;;5055753;28;848;-45
2021/10/06 07:56:34;;;;;;;;;;;17.20;99.90;;;;;;5061639;28;1190;-45
2021/10/06 07:59:00;;;;;;;;;;;17.20;99.90;;;;;;5055447;28;1286;-45
2021/10/06 08:01:25;;;;;;;;;;;17.20;99.90;;;;;;5055666;28;816;-45
2021/10/06 08:03:51;;;;;;;;;;;17.20;99.90;;;;;;5060374;28;1648;-45
2021/10/06 08:06:16;;;;;;;;;;;17.20;99.90;;;;;;5055345;28;793;-45
2021/10/06 08:08:42;;;;;;;;;;;17.10;99.90;;;;;;5055487;28;857;-45
2021/10/06 08:11:08;;;;;;;;;;;17.10;99.90;;;;;;5057927;28;1914;-45
2021/10/06 08:13:33;;;;;;;;;;;17.10;99.90;;;;;;5041831;28;817;-45
2021/10/06 08:15:59;;;;;;;;;;;17.10;99.90;;;;;;5060838;28;888;-45
2021/10/06 08:18:24;;;;;;;;;;;17.10;99.90;;;;;;5072376;28;1047;-46
2021/10/06 08:20:50;;;;;;;;;;;17.00;99.90;;;;;;5061154;28;1131;-45
2021/10/06 08:23:17;;;;;;;;;;;17.00;99.90;;;;;;5058748;28;856;-45
2021/10/06 08:25:43;;;;;;;;;;;17.00;99.90;;;;;;5058887;28;920;-45
2021/10/06 08:28:08;;;;;;;;;;;17.00;99.90;;;;;;5059016;28;1089;-45
2021/10/06 08:30:34;;;;;;;;;;;17.00;99.90;;;;;;5058954;28;1014;-45
2021/10/06 08:32:59;;;;;;;;;;;17.00;99.90;;;;;;5059372;28;1895;-45
2021/10/06 08:35:25;;;;;;;;;;;17.10;99.90;;;;;;5071110;28;1378;-51
2021/10/06 08:37:50;;;;;;;;;;;17.20;99.90;;;;;;5066819;28;1036;-51
2021/10/06 08:40:16;;;;;;;;;;;17.10;99.90;;;;;;5068705;28;1340;-50
2021/10/06 08:42:42;;;;;;;;;;;17.20;99.90;;;;;;5064039;28;1376;-51
2021/10/06 08:45:09;;;;;;;;;;;17.10;99.90;;;;;;5047891;28;1214;-50
2021/10/06 08:47:39;;;;;;;;;;;17.10;99.90;;;;;;5066872;28;1308;-51
2021/10/06 08:50:06;;;;;;;;;;;17.10;99.90;;;;;;5067654;28;1278;-51
2021/10/06 08:52:31;;;;;;;;;;;17.10;99.90;;;;;;5068897;28;1898;-51
2021/10/06 08:54:57;;;;;;;;;;;17.10;99.90;;;;;;5050384;28;1301;-50
2021/10/06 08:57:22;;;;;;;;;;;17.20;99.90;;;;;;5067531;28;1320;-46
2021/10/06 08:59:48;;;;;;;;;;;17.20;99.90;;;;;;5059408;28;1400;-46
2021/10/06 09:02:14;;;;;;;;;;;17.20;99.90;;;;;;5059745;28;1033;-46
2021/10/06 09:04:40;;;;;;;;;;;17.20;99.90;;;;;;5063381;28;1589;-46
2021/10/06 09:07:08;;;;;;;;;;;17.20;99.90;;;;;;5064077;28;965;-46
2021/10/06 09:09:35;;;;;;;;;;;17.20;99.90;;;;;;5058208;28;859;-46
2021/10/06 09:12:03;;;;;;;;;;;17.20;99.90;;;;;;5062930;28;1972;-46
2021/10/06 09:14:29;;;;;;;;;;;17.20;99.90;;;;;;5063835;28;1085;-46
2021/10/06 09:17:05;;;;;;;;;;;17.20;99.90;;;;;;5042338;28;1486;-46
2021/10/06 09:19:35;;;;;;;;;;;17.30;99.90;;;;;;5062727;28;1092;-46
2021/10/06 09:22:01;;;;;;;;;;;17.30;99.90;;;;;;5057537;28;755;-46
2021/10/06 09:24:47;;;;;;;;;;;17.40;99.90;;;;;;5061042;28;1080;-46
2021/10/06 09:27:13;;;;;;;;;;;17.40;99.90;;;;;;5061767;28;1233;-46
2021/10/06 09:29:52;;;;;;;;;;;17.40;99.90;;;;;;5076707;28;1103;-51
2021/10/06 09:32:25;;;;;;;;;;;17.40;99.90;;;;;;5061297;28;1967;-51
2021/10/06 09:35:08;;;;;;;;;;;17.50;99.90;;;;;;5046349;28;1325;-47
2021/10/06 09:37:34;;;;;;;;;;;17.60;99.90;;;;;;5058413;28;812;-47
2021/10/06 09:39:59;;;;;;;;;;;17.60;99.90;;;;;;5077029;28;851;-46
2021/10/06 09:42:25;;;;;;;;;;;17.40;99.90;;;;;;5073036;28;1011;-46
2021/10/06 09:44:52;;;;;;;;;;;17.50;99.90;;;;;;5073408;28;1361;-46
2021/10/06 09:47:18;;;;;;;;;;;17.60;99.90;;;;;;5073383;28;1089;-46
2021/10/06 09:49:43;;;;;;;;;;;17.60;99.90;;;;;;5057359;28;966;-46
2021/10/06 09:52:19;;;;;;;;;;;17.70;99.90;;;;;;5057769;28;1965;-46
2021/10/06 09:54:55;;;;;;;;;;;17.80;99.90;;;;;;5065897;28;1175;-46
2021/10/06 09:57:41;;;;;;;;;;;17.90;99.90;;;;;;5065254;28;1281;-46
2021/10/06 10:00:13;;;;;;;;;;;17.90;99.90;;;;;;5066060;28;1332;-46
2021/10/06 10:02:39;;;;;;;;;;;18.00;99.90;;;;;;5065064;28;1310;-46
2021/10/06 10:05:05;;;;;;;;;;;18.00;99.90;;;;;;5068712;28;1456;-47
2021/10/06 10:07:30;;;;;;;;;;;18.00;99.90;;;;;;5065121;28;1309;-52
2021/10/06 10:09:56;;;;;;;;;;;18.10;99.90;;;;;;5066097;28;1227;-52
2021/10/06 10:12:23;;;;;;;;;;;18.10;99.90;;;;;;5065261;28;1906;-52
2021/10/06 10:14:49;;;;;;;;;;;18.10;99.90;;;;;;5064863;28;1298;-52
2021/10/06 10:17:15;;;;;;;;;;;18.10;99.90;;;;;;5065790;28;1202;-52
2021/10/06 10:19:41;;;;;;;;;;;18.10;99.90;;;;;;5068557;28;1436;-52
2021/10/06 10:22:08;;;;;;;;;;;18.10;99.90;;;;;;5063802;28;1305;-52
2021/10/06 10:24:42;;;;;;;;;;;18.10;99.90;;;;;;5066080;28;1277;-52
2021/10/06 10:27:08;;;;;;;;;;;18.20;99.90;;;;;;5064185;28;1254;-52
2021/10/06 10:29:34;;;;;;;;;;;18.30;99.90;;;;;;5065342;28;1353;-52
2021/10/06 10:32:00;;;;;;;;;;;18.30;99.90;;;;;;5065617;28;1954;-52
2021/10/06 10:34:44;;;;;;;;;;;18.40;99.90;;;;;;5070339;28;1265;-52
2021/10/06 10:37:10;;;;;;;;;;;18.40;99.90;;;;;;5075623;28;765;-52
2021/10/06 10:39:35;;;;;;;;;;;18.50;99.90;;;;;;5067821;28;1173;-52
2021/10/06 10:42:01;;;;;;;;;;;18.40;99.90;;;;;;5058224;28;830;-51
2021/10/06 10:44:34;;;;;;;;;;;18.40;99.90;;;;;;5056470;28;797;-52
2021/10/06 10:47:00;;;;;;;;;;;18.40;99.90;;;;;;5065890;28;847;-52
2021/10/06 10:49:40;;;;;;;;;;;18.50;99.90;;;;;;5068742;28;1031;-51
2021/10/06 10:52:06;;;;;;;;;;;18.50;99.90;;;;;;5047167;28;1953;-52
2021/10/06 10:54:40;;;;;;;;;;;18.40;99.90;;;;;;5067719;28;1164;-51
2021/10/06 10:57:17;;;;;;;;;;;18.40;99.90;;;;;;5063560;28;1322;-52
2021/10/06 10:59:44;;;;;;;;;;;18.40;99.90;;;;;;5068837;28;1551;-52
2021/10/06 11:02:16;;;;;;;;;;;18.40;99.90;;;;;;5062618;28;1358;-52
2021/10/06 11:04:44;;;;;;;;;;;18.40;99.90;;;;;;5067696;28;1580;-52
2021/10/06 11:07:13;;;;;;;;;;;18.30;99.90;;;;;;5066511;28;1528;-52
2021/10/06 11:09:40;;;;;;;;;;;18.20;99.90;;;;;;5046908;28;1449;-46
2021/10/06 11:12:06;;;;;;;;;;;18.20;99.90;;;;;;5066285;28;1910;-46
2021/10/06 11:14:32;;;;;;;;;;;18.20;99.90;;;;;;5060820;28;1567;-46
2021/10/06 11:17:18;;;;;;;;;;;18.20;99.90;;;;;;5070841;28;1454;-46
2021/10/06 11:19:50;;;;;;;;;;;18.10;99.90;;;;;;5065290;28;1156;-46
2021/10/06 11:22:22;;;;;;;;;;;18.10;99.90;;;;;;5061323;28;1139;-46
2021/10/06 11:24:51;;;;;;;;;;;18.10;99.90;;;;;;5065002;28;1527;-46
2021/10/06 11:27:18;;;;;;;;;;;18.10;99.90;;;;;;5063310;28;966;-46
2021/10/06 11:29:47;;;;;;;;;;;18.00;99.90;;;;;;5063593;28;1191;-46
2021/10/06 11:32:13;;;;;;;;;;;18.00;99.90;;;;;;5062072;28;1956;-46
2021/10/06 11:34:45;;;;;;;;;;;18.10;99.90;;;;;;5060115;28;937;-46
2021/10/06 11:37:18;;;;;;;;;;;18.00;99.90;;;;;;5041888;28;990;-46
2021/10/06 11:39:44;;;;;;;;;;;18.00;99.90;;;;;;5057322;28;958;-52
2021/10/06 11:42:09;;;;;;;;;;;18.00;99.90;;;;;;5069529;28;1005;-52
2021/10/06 11:44:35;;;;;;;;;;;18.00;99.90;;;;;;5063236;28;1248;-48
2021/10/06 11:47:03;;;;;;;;;;;18.00;99.90;;;;;;5048693;28;1180;-46
2021/10/06 11:49:29;;;;;;;;;;;18.10;99.90;;;;;;5068576;28;1307;-46
2021/10/06 11:51:55;;;;;;;;;;;18.00;99.90;;;;;;5072297;28;1889;-46
2021/10/06 11:54:24;;;;;;;;;;;18.00;99.90;;;;;;5067536;28;1349;-47
2021/10/06 11:56:50;;;;;;;;;;;18.00;99.90;;;;;;5066666;28;1230;-46
2021/10/06 11:59:17;;;;;;;;;;;18.00;99.90;;;;;;5062262;28;1659;-46
2021/10/06 12:02:08;;;;;;;;;;;17.90;99.90;;;;;;5065475;28;1275;-46
2021/10/06 12:04:35;;;;;;;;;;;17.90;99.90;;;;;;5066303;28;1425;-46
2021/10/06 12:07:02;;;;;;;;;;;17.80;99.90;;;;;;5065782;28;971;-46
2021/10/06 12:09:36;;;;;;;;;;;17.80;99.90;;;;;;5063999;28;1024;-46
2021/10/06 12:12:02;;;;;;;;;;;17.70;99.90;;;;;;5065023;28;1987;-46
2021/10/06 12:14:29;;;;;;;;;;;17.70;99.90;;;;;;5058896;28;1081;-46
2021/10/06 12:17:03;;;;;;;;;;;17.80;99.90;;;;;;5068737;28;1186;-46
2021/10/06 12:19:28;;;;;;;;;;;17.80;99.90;;;;;;5064850;28;1575;-46
2021/10/06 12:21:54;;;;;;;;;;;17.80;99.90;;;;;;5071272;28;954;-51
2021/10/06 12:24:21;;;;;;;;;;;17.80;99.90;;;;;;5064704;28;1267;-51
2021/10/06 12:26:47;;;;;;;;;;;17.80;99.90;;;;;;5069821;28;1202;-51
2021/10/06 12:29:13;;;;;;;;;;;17.80;99.90;;;;;;5068337;28;1195;-50
2021/10/06 12:31:38;;;;;;;;;;;17.80;99.90;;;;;;5047398;28;1977;-50
2021/10/06 12:34:07;;;;;;;;;;;17.80;99.90;;;;;;5063311;28;958;-51
2021/10/06 12:36:33;;;;;;;;;;;17.80;99.90;;;;;;5060027;28;1006;-51
2021/10/06 12:38:58;;;;;;;;;;;17.90;99.90;;;;;;5064760;28;954;-51
2021/10/06 12:41:35;;;;;;;;;;;17.90;99.90;;;;;;5064024;28;1350;-51
2021/10/06 12:44:00;;;;;;;;;;;17.90;99.90;;;;;;5064824;28;939;-50
2021/10/06 12:46:26;;;;;;;;;;;17.90;99.90;;;;;;5062313;28;1218;-51
2021/10/06 12:48:52;;;;;;;;;;;17.90;99.90;;;;;;5065682;28;1291;-50
2021/10/06 12:51:24;;;;;;;;;;;17.90;99.90;;;;;;5065534;28;1969;-50
2021/10/06 12:54:15;;;;;;;;;;;17.90;99.90;;;;;;5069474;28;1354;-50
2021/10/06 12:56:52;;;;;;;;;;;17.90;99.90;;;;;;5067335;28;950;-50
2021/10/06 12:59:18;;;;;;;;;;;18.00;99.90;;;;;;5059393;28;844;-51
2021/10/06 13:01:45;;;;;;;;;;;18.00;99.90;;;;;;5062163;28;1065;-51
2021/10/06 13:04:12;;;;;;;;;;;18.00;99.90;;;;;;5069494;28;1648;-51
2021/10/06 13:06:41;;;;;;;;;;;18.00;99.90;;;;;;5062298;28;954;-51
2021/10/06 13:09:07;;;;;;;;;;;18.00;99.90;;;;;;5067555;28;1532;-50
2021/10/06 13:11:33;;;;;;;;;;;18.00;99.90;;;;;;5064902;28;1959;-51
2021/10/06 13:13:58;;;;;;;;;;;18.00;99.90;;;;;;5057153;28;821;-51
2021/10/06 13:16:24;;;;;;;;;;;18.00;99.90;;;;;;5064866;28;974;-51
2021/10/06 13:18:49;;;;;;;;;;;18.00;99.90;;;;;;5077135;28;718;-51
2021/10/06 13:21:15;;;;;;;;;;;17.90;99.90;;;;;;5068229;28;1019;-51
2021/10/06 13:23:41;;;;;;;;;;;17.90;99.90;;;;;;5065894;28;1202;-51
2021/10/06 13:26:07;;;;;;;;;;;17.80;99.90;;;;;;5064501;28;1123;-51
2021/10/06 13:28:33;;;;;;;;;;;17.90;99.90;;;;;;5069536;28;1013;-51
2021/10/06 13:30:59;;;;;;;;;;;17.90;99.90;;;;;;5058204;28;999;-51
2021/10/06 13:33:24;;;;;;;;;;;17.90;99.90;;;;;;5057311;28;1898;-51
2021/10/06 13:35:50;;;;;;;;;;;17.80;99.90;;;;;;5055040;28;777;-51
2021/10/06 13:38:15;;;;;;;;;;;17.70;99.90;;;;;;5055113;28;717;-51
2021/10/06 13:40:41;;;;;;;;;;;17.70;99.90;;;;;;5055815;28;702;-51
2021/10/06 13:43:06;;;;;;;;;;;17.70;99.90;;;;;;5055373;28;979;-51
2021/10/06 13:45:32;;;;;;;;;;;17.60;99.90;;;;;;5055615;28;805;-51
2021/10/06 13:47:58;;;;;;;;;;;17.60;99.90;;;;;;5073023;28;840;-51
2021/10/06 13:50:23;;;;;;;;;;;17.60;99.90;;;;;;5075314;28;841;-51
2021/10/06 13:52:49;;;;;;;;;;;17.60;99.90;;;;;;5076497;28;1961;-51
2021/10/06 13:55:14;;;;;;;;;;;17.60;99.90;;;;;;5076870;28;988;-51
2021/10/06 13:57:40;;;;;;;;;;;17.60;99.90;;;;;;5076753;28;821;-51
2021/10/06 14:00:06;;;;;;;;;;;17.50;99.90;;;;;;5076678;28;973;-51
2021/10/06 14:02:32;;;;;;;;;;;17.50;99.90;;;;;;5070099;28;1211;-51
2021/10/06 14:04:57;;;;;;;;;;;17.50;99.90;;;;;;5059200;28;974;-51
2021/10/06 14:07:23;;;;;;;;;;;17.50;99.90;;;;;;5057301;28;963;-51
2021/10/06 14:09:51;;;;;;;;;;;17.50;99.90;;;;;;5056580;28;1236;-51
2021/10/06 14:12:16;;;;;;;;;;;17.50;99.90;;;;;;5056937;28;1914;-51
2021/10/06 14:14:42;;;;;;;;;;;17.40;99.90;;;;;;5039633;28;948;-51
2021/10/06 14:17:07;;;;;;;;;;;17.40;99.90;;;;;;5067329;28;771;-51
2021/10/06 14:19:33;;;;;;;;;;;17.40;99.90;;;;;;5071801;28;1028;-51
2021/10/06 14:21:58;;;;;;;;;;;17.50;99.90;;;;;;5057228;28;801;-51
2021/10/06 14:24:24;;;;;;;;;;;17.50;99.90;;;;;;5056916;28;786;-51
2021/10/06 14:26:49;;;;;;;;;;;17.50;99.90;;;;;;5056567;28;718;-51
2021/10/06 14:29:15;;;;;;;;;;;17.40;99.90;;;;;;5039225;28;928;-51
2021/10/06 14:31:40;;;;;;;;;;;17.40;99.90;;;;;;5056514;28;1953;-51